createdAt,value
2022-12-20T00:02:44.955Z,36.63
2022-12-20T00:05:30.423Z,29.58
2022-12-20T00:08:16.098Z,30.98
2022-12-20T00:11:02.811Z,30.83
2022-12-20T00:13:47.947Z,32.03
2022-12-20T00:16:33.755Z,27.75
2022-12-20T00:19:19.270Z,30.33
2022-12-20T00:22:04.385Z,28.23
2022-12-20T00:24:49.544Z,33.13
2022-12-20T00:27:34.818Z,32.78
2022-12-20T00:30:20.131Z,34.83
2022-12-20T00:33:05.342Z,31.95
2022-12-20T00:35:51.799Z,31.55
2022-12-20T00:38:38.037Z,35.22
2022-12-20T00:41:29.657Z,31.70
2022-12-20T00:44:15.675Z,30.73
2022-12-20T00:47:01.181Z,32.95
2022-12-20T00:49:46.397Z,29.73
2022-12-20T00:52:31.891Z,31.33
2022-12-20T00:55:17.367Z,31.35
2022-12-20T00:58:02.570Z,32.25
2022-12-20T01:00:54.071Z,30.35
2022-12-20T01:03:42.676Z,31.83
2022-12-20T01:06:29.401Z,29.90
2022-12-20T01:09:14.774Z,26.85
2022-12-20T01:12:00.398Z,26.70
2022-12-20T01:14:45.958Z,28.27
2022-12-20T01:17:31.104Z,28.50
2022-12-20T01:20:16.860Z,29.63
2022-12-20T01:23:02.448Z,29.23
2022-12-20T01:25:51.069Z,27.92
2022-12-20T01:28:38.397Z,27.80
2022-12-20T01:31:24.582Z,29.38
2022-12-20T01:34:10.875Z,30.77
2022-12-20T01:36:56.362Z,29.33
2022-12-20T01:39:41.884Z,30.00
2022-12-20T01:42:27.011Z,31.20
2022-12-20T01:45:25.620Z,31.30
2022-12-20T01:48:12.110Z,27.30
2022-12-20T01:50:57.582Z,31.23
2022-12-20T01:53:43.514Z,26.42
2022-12-20T01:56:28.823Z,26.48
2022-12-20T01:59:14.142Z,29.40
2022-12-20T02:02:05.072Z,30.35
2022-12-20T02:04:50.523Z,30.20
2022-12-20T02:07:51.586Z,27.55
2022-12-20T02:10:52.466Z,25.88
2022-12-20T02:14:27.658Z,30.58
2022-12-20T02:17:17.744Z,26.45
2022-12-20T02:20:18.403Z,27.02
2022-12-20T02:23:28.069Z,25.88
2022-12-20T02:26:28.379Z,23.65
2022-12-20T02:29:33.726Z,28.58
2022-12-20T02:32:26.530Z,26.77
2022-12-20T02:35:14.912Z,26.02
2022-12-20T02:38:23.539Z,26.75
2022-12-20T02:41:30.333Z,29.58
2022-12-20T02:44:38.547Z,28.92
2022-12-20T02:47:33.853Z,30.95
2022-12-20T02:50:36.828Z,28.00
2022-12-20T02:53:23.660Z,24.52
2022-12-20T02:56:19.913Z,25.60
2022-12-20T02:59:12.488Z,25.05
2022-12-20T03:01:58.589Z,27.80
2022-12-20T03:04:47.283Z,24.08
2022-12-20T03:07:34.442Z,30.17
2022-12-20T03:10:20.957Z,25.75
2022-12-20T03:13:06.050Z,24.27
2022-12-20T03:15:53.286Z,27.23
2022-12-20T03:18:39.098Z,28.85
2022-12-20T03:21:24.227Z,25.92
2022-12-20T03:24:11.143Z,26.10
2022-12-20T03:26:56.048Z,23.25
2022-12-20T03:29:42.977Z,27.27
2022-12-20T03:32:28.245Z,26.00
2022-12-20T03:35:14.296Z,27.67
2022-12-20T03:38:00.072Z,28.23
2022-12-20T03:40:45.769Z,26.83
2022-12-20T03:43:35.125Z,25.40
2022-12-20T03:46:20.975Z,25.35
2022-12-20T03:49:06.362Z,25.33
2022-12-20T03:51:55.856Z,25.80
2022-12-20T03:54:41.859Z,24.77
2022-12-20T03:57:39.927Z,25.67
2022-12-20T04:00:37.173Z,23.98
2022-12-20T04:03:51.783Z,26.02
2022-12-20T04:06:37.013Z,24.83
2022-12-20T04:09:22.417Z,24.48
2022-12-20T04:12:12.909Z,22.33
2022-12-20T04:14:58.505Z,23.75
2022-12-20T04:17:43.972Z,23.85
2022-12-20T04:20:29.659Z,24.98
2022-12-20T04:23:29.466Z,24.05
2022-12-20T04:26:15.469Z,30.10
2022-12-20T04:29:00.796Z,27.33
2022-12-20T04:31:46.859Z,26.00
2022-12-20T04:34:32.578Z,26.35
2022-12-20T04:37:18.674Z,24.15
2022-12-20T04:40:09.733Z,23.10
2022-12-20T04:43:04.389Z,26.02
2022-12-20T04:45:52.913Z,23.25
2022-12-20T04:48:58.468Z,25.38
2022-12-20T04:51:44.680Z,25.90
2022-12-20T04:54:32.960Z,23.33
2022-12-20T04:57:30.519Z,25.95
2022-12-20T05:00:17.189Z,25.50
2022-12-20T05:03:07.398Z,26.02
2022-12-20T05:05:53.542Z,24.80
2022-12-20T05:08:40.426Z,23.33
2022-12-20T05:11:26.295Z,24.02
2022-12-20T05:14:11.731Z,26.98
2022-12-20T05:16:57.302Z,26.92
2022-12-20T05:19:44.345Z,25.13
2022-12-20T05:22:52.049Z,24.10
2022-12-20T05:26:09.391Z,26.52
2022-12-20T05:28:55.454Z,24.63
2022-12-20T05:31:41.261Z,25.20
2022-12-20T05:34:27.017Z,26.90
2022-12-20T05:37:14.389Z,25.38
2022-12-20T05:40:01.478Z,25.08
2022-12-20T05:42:47.163Z,25.50
2022-12-20T05:45:33.172Z,22.23
2022-12-20T05:48:22.501Z,23.90
2022-12-20T05:51:07.727Z,28.35
2022-12-20T05:54:05.722Z,29.77
2022-12-20T05:57:01.193Z,27.75
2022-12-20T05:59:53.102Z,24.77
2022-12-20T06:02:42.477Z,24.15
2022-12-20T06:05:28.022Z,26.00
2022-12-20T06:08:14.549Z,25.85
2022-12-20T06:11:00.933Z,26.20
2022-12-20T06:13:48.009Z,25.33
2022-12-20T06:16:34.501Z,30.25
2022-12-20T06:19:21.843Z,27.77
2022-12-20T06:22:10.411Z,27.02
2022-12-20T06:25:00.458Z,30.15
2022-12-20T06:27:49.985Z,24.02
2022-12-20T06:30:35.447Z,26.88
2022-12-20T06:33:25.745Z,25.33
2022-12-20T06:36:11.764Z,30.65
2022-12-20T06:38:57.412Z,23.63
2022-12-20T06:41:42.988Z,26.23
2022-12-20T06:44:28.204Z,25.77
2022-12-20T06:47:13.649Z,25.33
2022-12-20T06:49:59.289Z,25.20
2022-12-20T06:52:45.283Z,28.65
2022-12-20T06:55:30.700Z,28.02
2022-12-20T06:58:17.572Z,27.80
2022-12-20T07:01:05.594Z,28.57
2022-12-20T07:03:51.228Z,25.30
2022-12-20T07:06:36.621Z,26.70
2022-12-20T07:09:21.654Z,29.98
2022-12-20T07:12:08.738Z,28.02
2022-12-20T07:14:53.888Z,28.55
2022-12-20T07:17:39.431Z,27.70
2022-12-20T07:20:24.726Z,42.70
2022-12-20T07:23:09.980Z,29.60
2022-12-20T07:25:56.623Z,29.77
2022-12-20T07:28:42.716Z,30.83
2022-12-20T07:31:28.204Z,25.75
2022-12-20T07:34:13.657Z,30.67
2022-12-20T07:36:58.950Z,29.48
2022-12-20T07:39:44.154Z,28.45
2022-12-20T07:42:36.175Z,27.88
2022-12-20T07:45:24.357Z,24.20
2022-12-20T07:48:13.885Z,33.92
2022-12-20T07:51:12.061Z,28.00
2022-12-20T07:54:12.206Z,28.65
2022-12-20T07:57:01.754Z,31.25
2022-12-20T07:59:51.205Z,32.83
2022-12-20T08:02:48.669Z,29.80
2022-12-20T08:05:37.346Z,37.20
2022-12-20T08:08:23.375Z,29.80
2022-12-20T08:11:10.735Z,33.63
2022-12-20T08:13:58.331Z,32.05
2022-12-20T08:16:44.293Z,32.90
2022-12-20T08:19:32.486Z,29.25
2022-12-20T08:22:19.244Z,32.37
2022-12-20T08:25:04.813Z,38.20
2022-12-20T08:27:50.305Z,47.10
2022-12-20T08:30:35.595Z,34.70
2022-12-20T08:33:20.995Z,29.52
2022-12-20T08:36:10.881Z,29.35
2022-12-20T08:38:56.449Z,28.23
2022-12-20T08:41:41.755Z,30.05
2022-12-20T08:44:26.780Z,30.27
2022-12-20T08:47:12.127Z,33.33
2022-12-20T08:49:57.602Z,29.40
2022-12-20T08:52:42.648Z,28.10
2022-12-20T08:55:29.398Z,34.47
2022-12-20T08:58:15.698Z,31.88
2022-12-20T09:01:06.413Z,29.80
2022-12-20T09:03:52.196Z,30.75
2022-12-20T09:06:37.378Z,32.28
2022-12-20T09:09:22.374Z,37.25
2022-12-20T09:12:08.001Z,30.08
2022-12-20T09:14:53.356Z,33.55
2022-12-20T09:17:38.740Z,27.45
2022-12-20T09:20:23.827Z,29.10
2022-12-20T09:23:09.264Z,28.80
2022-12-20T09:25:55.724Z,35.30
2022-12-20T09:28:42.491Z,32.78
2022-12-20T09:31:28.204Z,32.33
2022-12-20T09:34:13.398Z,33.78
2022-12-20T09:36:58.694Z,30.70
2022-12-20T09:39:44.177Z,29.40
2022-12-20T09:42:30.826Z,29.25
2022-12-20T09:45:28.810Z,28.27
2022-12-20T09:48:24.193Z,31.08
2022-12-20T09:51:29.695Z,33.17
2022-12-20T09:54:33.023Z,25.40
2022-12-20T09:57:29.986Z,27.63
2022-12-20T10:00:18.013Z,26.65
2022-12-20T10:03:10.153Z,28.35
2022-12-20T10:06:00.350Z,26.30
2022-12-20T10:09:10.679Z,24.92
2022-12-20T10:12:33.510Z,25.80
2022-12-20T10:15:28.764Z,33.92
2022-12-20T10:19:06.863Z,26.63
2022-12-20T10:22:12.458Z,28.55
2022-12-20T10:25:24.767Z,26.83
2022-12-20T10:28:16.822Z,25.63
2022-12-20T10:31:08.261Z,28.42
2022-12-20T10:33:53.775Z,25.45
2022-12-20T10:36:39.752Z,27.75
2022-12-20T10:39:42.243Z,29.02
2022-12-20T10:42:45.814Z,26.02
2022-12-20T10:45:40.873Z,25.50
2022-12-20T10:48:29.264Z,23.08
2022-12-20T10:51:16.935Z,24.35
2022-12-20T10:54:04.117Z,25.98
2022-12-20T10:56:58.703Z,30.17
2022-12-20T10:59:54.567Z,26.58
2022-12-20T11:02:42.697Z,25.95
2022-12-20T11:05:29.220Z,26.58
2022-12-20T11:08:37.569Z,25.88
2022-12-20T11:11:24.685Z,27.70
2022-12-20T11:14:16.280Z,23.65
2022-12-20T11:17:07.759Z,23.98
2022-12-20T11:20:16.198Z,21.67
2022-12-20T11:23:18.181Z,23.38
2022-12-20T11:26:29.608Z,27.90
2022-12-20T11:29:33.127Z,21.35
2022-12-20T11:32:40.573Z,27.35
2022-12-20T11:35:37.254Z,23.23
2022-12-20T11:38:28.070Z,26.35
2022-12-20T11:41:48.916Z,23.20
2022-12-20T11:44:45.721Z,26.63
2022-12-20T11:47:47.637Z,24.83
2022-12-20T11:51:16.114Z,26.58
2022-12-20T11:54:17.046Z,24.77
2022-12-20T11:57:13.498Z,23.13
2022-12-20T12:00:02.588Z,23.38
2022-12-20T12:03:05.859Z,27.63
2022-12-20T12:05:56.447Z,26.77
2022-12-20T12:08:58.502Z,26.38
2022-12-20T12:12:08.189Z,27.50
2022-12-20T12:15:18.473Z,24.38
2022-12-20T12:21:03.523Z,27.05
2022-12-20T12:24:05.751Z,24.10
2022-12-20T12:26:51.911Z,24.42
2022-12-20T12:29:37.344Z,23.60
2022-12-20T12:32:47.472Z,23.45
2022-12-20T12:39:13.383Z,24.70
2022-12-20T12:42:14.001Z,20.63
2022-12-20T12:45:03.130Z,23.17
2022-12-20T12:48:12.200Z,20.95
2022-12-20T12:51:00.768Z,23.23
2022-12-20T12:53:51.347Z,26.42
2022-12-20T12:56:45.504Z,24.95
2022-12-20T12:59:34.442Z,21.98
2022-12-20T13:02:26.713Z,25.13
2022-12-20T13:05:14.585Z,22.77
2022-12-20T13:08:01.132Z,23.77
2022-12-20T13:10:46.274Z,25.30
2022-12-20T13:13:31.841Z,24.27
2022-12-20T13:17:02.137Z,29.13
2022-12-20T13:19:39.032Z,23.75
2022-12-20T13:22:25.936Z,27.50
2022-12-20T13:25:29.901Z,28.10
2022-12-20T13:28:24.048Z,24.58
2022-12-20T13:31:12.704Z,22.65
2022-12-20T13:34:00.960Z,32.42
2022-12-20T13:36:46.360Z,37.88
2022-12-20T13:39:37.025Z,33.55
2022-12-20T13:42:34.105Z,30.40
2022-12-20T13:45:19.773Z,28.42
2022-12-20T13:48:11.478Z,24.80
2022-12-20T13:50:58.094Z,25.05
2022-12-20T13:53:56.569Z,23.73
2022-12-20T13:56:45.561Z,29.00
2022-12-20T13:59:33.272Z,37.05
2022-12-20T14:02:29.717Z,27.70
2022-12-20T14:05:21.502Z,29.23
2022-12-20T14:08:15.766Z,25.80
2022-12-20T14:11:19.264Z,27.20
2022-12-20T14:14:04.837Z,27.27
2022-12-20T14:16:50.386Z,31.10
2022-12-20T14:19:36.742Z,26.02
2022-12-20T14:22:22.080Z,26.70
2022-12-20T14:25:09.054Z,27.73
2022-12-20T14:27:55.792Z,25.65
2022-12-20T14:30:43.875Z,28.67
2022-12-20T14:33:30.769Z,32.67
2022-12-20T14:36:18.307Z,31.27
2022-12-20T14:39:25.151Z,28.17
2022-12-20T14:42:10.464Z,25.33
2022-12-20T14:45:04.214Z,29.33
2022-12-20T14:48:03.330Z,33.40
2022-12-20T14:50:53.657Z,28.52
2022-12-20T14:53:40.366Z,33.35
2022-12-20T14:56:32.247Z,32.70
2022-12-20T14:59:27.113Z,33.88
2022-12-20T15:02:54.416Z,30.67
2022-12-20T15:05:47.023Z,34.70
2022-12-20T15:08:33.478Z,32.53
2022-12-20T15:11:22.694Z,31.23
2022-12-20T15:14:24.836Z,29.73
2022-12-20T15:17:14.488Z,31.00
2022-12-20T15:19:59.711Z,34.17
2022-12-20T15:22:45.394Z,36.47
2022-12-20T15:25:41.204Z,34.53
2022-12-20T15:28:28.742Z,33.67
2022-12-20T15:31:17.126Z,32.05
2022-12-20T15:34:29.132Z,35.17
2022-12-20T15:37:18.707Z,32.80
2022-12-20T15:42:49.259Z,35.25
2022-12-20T15:45:34.613Z,35.47
2022-12-20T15:48:23.277Z,37.88
2022-12-20T15:51:28.541Z,32.00
2022-12-20T15:54:32.716Z,34.20
2022-12-20T15:57:18.511Z,37.40
2022-12-20T16:00:06.216Z,37.08
2022-12-20T16:02:59.364Z,36.55
2022-12-20T16:05:44.881Z,36.97
2022-12-20T16:08:30.784Z,44.97
2022-12-20T16:11:28.111Z,37.45
2022-12-20T16:14:18.739Z,41.08
2022-12-20T16:17:04.503Z,36.25
2022-12-20T16:19:49.791Z,43.42
2022-12-20T16:22:35.268Z,34.53
2022-12-20T16:25:25.886Z,33.53
2022-12-20T16:28:11.234Z,34.88
2022-12-20T16:30:56.536Z,34.30
2022-12-20T16:33:41.905Z,34.60
2022-12-20T16:36:27.473Z,32.75
2022-12-20T16:39:12.661Z,33.85
2022-12-20T16:41:57.895Z,38.15
2022-12-20T16:44:44.944Z,39.45
2022-12-20T16:47:30.830Z,35.92
2022-12-20T16:50:17.076Z,37.67
2022-12-20T16:53:02.813Z,31.58
2022-12-20T16:55:47.863Z,32.28
2022-12-20T16:58:59.934Z,38.47
2022-12-20T17:01:40.334Z,37.35
2022-12-20T17:04:28.801Z,38.35
2022-12-20T17:07:14.152Z,36.55
2022-12-20T17:10:12.336Z,41.92
2022-12-20T17:12:58.019Z,36.00
2022-12-20T17:15:47.564Z,33.15
2022-12-20T17:18:32.904Z,34.40
2022-12-20T17:21:21.300Z,34.92
2022-12-20T17:24:14.501Z,38.38
2022-12-20T17:27:00.321Z,35.60
2022-12-20T17:29:45.767Z,38.28
2022-12-20T17:32:34.241Z,34.15
2022-12-20T17:35:26.541Z,36.83
2022-12-20T17:38:12.003Z,37.65
2022-12-20T17:40:57.320Z,35.17
2022-12-20T17:43:42.477Z,42.13
2022-12-20T17:46:28.450Z,59.25
2022-12-20T17:49:14.287Z,51.55
2022-12-20T17:51:59.713Z,36.47
2022-12-20T17:54:44.960Z,33.88
2022-12-20T17:57:30.349Z,37.38
2022-12-20T18:00:19.982Z,33.92
2022-12-20T18:03:05.616Z,38.17
2022-12-20T18:05:52.139Z,34.55
2022-12-20T18:08:37.730Z,33.83
2022-12-20T18:11:26.834Z,40.30
2022-12-20T18:14:12.820Z,41.47
2022-12-20T18:16:58.717Z,38.80
2022-12-20T18:19:43.985Z,39.53
2022-12-20T18:22:29.291Z,34.33
2022-12-20T18:25:18.190Z,38.33
2022-12-20T18:28:03.771Z,39.88
2022-12-20T18:30:48.935Z,40.72
2022-12-20T18:33:35.138Z,38.50
2022-12-20T18:36:22.972Z,35.80
2022-12-20T18:39:08.666Z,39.80
2022-12-20T18:41:53.903Z,38.13
2022-12-20T18:44:39.246Z,40.47
2022-12-20T18:47:24.883Z,38.50
2022-12-20T18:50:13.100Z,41.65
2022-12-20T18:53:01.507Z,40.92
2022-12-20T18:55:48.277Z,37.30
2022-12-20T18:58:34.033Z,37.58
2022-12-20T19:01:28.257Z,42.67
2022-12-20T19:04:15.104Z,42.90
2022-12-20T19:07:01.724Z,35.45
2022-12-20T19:09:47.098Z,41.83
2022-12-20T19:12:34.071Z,46.30
2022-12-20T19:15:19.204Z,48.45
2022-12-20T19:18:05.189Z,39.33
2022-12-20T19:20:50.393Z,41.95
2022-12-20T19:23:37.139Z,42.15
2022-12-20T19:26:25.711Z,40.22
2022-12-20T19:29:14.571Z,36.08
2022-12-20T19:31:59.913Z,34.70
2022-12-20T19:34:45.199Z,36.97
2022-12-20T19:37:36.976Z,50.45
2022-12-20T19:40:22.536Z,38.50
2022-12-20T19:43:07.819Z,43.00
2022-12-20T19:45:52.934Z,41.97
2022-12-20T19:48:38.682Z,42.03
2022-12-20T19:51:26.056Z,35.35
2022-12-20T19:54:12.216Z,43.15
2022-12-20T19:56:59.756Z,41.90
2022-12-20T19:59:55.403Z,44.10
2022-12-20T20:02:47.659Z,40.42
2022-12-20T20:05:39.436Z,41.15
2022-12-20T20:08:25.225Z,40.22
2022-12-20T20:11:11.247Z,36.03
2022-12-20T20:13:56.922Z,53.25
2022-12-20T20:16:42.180Z,54.13
2022-12-20T20:19:27.396Z,40.67
2022-12-20T20:22:17.770Z,51.20
2022-12-20T20:25:08.132Z,40.03
2022-12-20T20:27:53.749Z,51.15
2022-12-20T20:30:43.866Z,49.83
2022-12-20T20:33:30.882Z,37.85
2022-12-20T20:36:21.592Z,36.10
2022-12-20T20:39:07.095Z,39.55
2022-12-20T20:41:52.257Z,35.72
2022-12-20T20:44:37.734Z,39.42
2022-12-20T20:47:23.540Z,34.90
2022-12-20T20:50:09.085Z,38.70
2022-12-20T20:52:54.625Z,40.13
2022-12-20T20:55:40.340Z,40.00
2022-12-20T20:58:26.128Z,40.20
2022-12-20T21:01:11.572Z,42.95
2022-12-20T21:03:57.275Z,41.22
2022-12-20T21:06:42.920Z,39.65
2022-12-20T21:09:28.745Z,39.58
2022-12-20T21:12:15.834Z,38.33
2022-12-20T21:15:22.024Z,39.45
2022-12-20T21:18:06.848Z,40.40
2022-12-20T21:20:52.170Z,40.40
2022-12-20T21:23:38.742Z,39.03
2022-12-20T21:26:27.950Z,36.75
2022-12-20T21:29:13.477Z,42.83
2022-12-20T21:31:58.743Z,41.70
2022-12-20T21:34:46.867Z,43.65
2022-12-20T21:37:32.473Z,37.45
2022-12-20T21:40:18.071Z,40.47
2022-12-20T21:43:03.444Z,38.97
2022-12-20T21:45:50.370Z,38.55
2022-12-20T21:48:35.832Z,40.05
2022-12-20T21:51:23.762Z,39.10
2022-12-20T21:54:09.298Z,41.25
2022-12-20T21:56:54.504Z,41.08
2022-12-20T21:59:39.855Z,36.30
2022-12-20T22:02:25.342Z,36.63
2022-12-20T22:05:10.636Z,39.50
2022-12-20T22:07:56.049Z,40.88
2022-12-20T22:10:42.479Z,41.08
2022-12-20T22:13:29.193Z,38.78
2022-12-20T22:16:16.139Z,37.58
2022-12-20T22:19:02.444Z,43.92
2022-12-20T22:21:53.707Z,36.35
2022-12-20T22:24:43.088Z,36.17
2022-12-20T22:27:28.425Z,38.13
2022-12-20T22:30:14.261Z,37.72
2022-12-20T22:32:59.731Z,34.88
2022-12-20T22:35:45.043Z,34.70
2022-12-20T22:38:30.453Z,40.92
2022-12-20T22:41:30.457Z,35.05
2022-12-20T22:44:15.755Z,37.90
2022-12-20T22:47:00.915Z,37.60
2022-12-20T22:49:46.375Z,37.83
2022-12-20T22:52:33.108Z,34.35
2022-12-20T22:55:18.581Z,37.22
2022-12-20T22:58:03.624Z,35.97
2022-12-20T23:00:49.207Z,37.85
2022-12-20T23:03:35.842Z,38.72
2022-12-20T23:06:21.904Z,40.45
2022-12-20T23:09:07.066Z,38.83
2022-12-20T23:12:11.590Z,38.42
2022-12-20T23:15:26.109Z,36.22
2022-12-20T23:18:11.563Z,39.00
2022-12-20T23:21:15.306Z,37.63
2022-12-20T23:24:00.263Z,41.67
2022-12-20T23:26:45.886Z,39.47
2022-12-20T23:29:31.082Z,34.63
2022-12-20T23:32:16.495Z,38.33
2022-12-20T23:35:08.346Z,38.33
2022-12-20T23:37:58.028Z,39.47
2022-12-20T23:40:43.200Z,34.28
2022-12-20T23:43:30.188Z,37.95
2022-12-20T23:46:18.322Z,38.90
2022-12-20T23:49:03.772Z,40.00
2022-12-20T23:51:49.011Z,40.33
2022-12-20T23:54:34.125Z,41.05
2022-12-20T23:57:19.671Z,36.97
